sensor_id;sensor_type;location;lat;lon;timestamp;P1;durP1;ratioP1;P2;durP2;ratioP2
16660;SDS011;8444;52.012;5.048;2023-08-31T00:02:10;6.50;;;2.78;;
16660;SDS011;8444;52.012;5.048;2023-08-31T00:04:36;4.75;;;2.45;;
16660;SDS011;8444;52.012;5.048;2023-08-31T00:07:01;4.90;;;2.42;;
16660;SDS011;8444;52.012;5.048;2023-08-31T00:09:26;8.00;;;2.70;;
16660;SDS011;8444;52.012;5.048;2023-08-31T00:11:51;6.07;;;3.03;;
16660;SDS011;8444;52.012;5.048;2023-08-31T00:14:17;5.95;;;2.78;;
16660;SDS011;8444;52.012;5.048;2023-08-31T00:16:42;4.68;;;2.72;;
16660;SDS011;8444;52.012;5.048;2023-08-31T00:19:09;8.60;;;3.10;;
16660;SDS011;8444;52.012;5.048;2023-08-31T00:21:34;5.35;;;3.25;;
16660;SDS011;8444;52.012;5.048;2023-08-31T00:23:59;6.05;;;2.88;;
16660;SDS011;8444;52.012;5.048;2023-08-31T00:26:25;9.88;;;3.65;;
16660;SDS011;8444;52.012;5.048;2023-08-31T00:28:50;5.97;;;3.22;;
16660;SDS011;8444;52.012;5.048;2023-08-31T00:31:15;5.78;;;2.97;;
16660;SDS011;8444;52.012;5.048;2023-08-31T00:33:40;10.23;;;3.72;;
16660;SDS011;8444;52.012;5.048;2023-08-31T00:36:07;8.60;;;4.50;;
16660;SDS011;8444;52.012;5.048;2023-08-31T00:38:32;7.68;;;4.18;;
16660;SDS011;8444;52.012;5.048;2023-08-31T00:40:58;6.32;;;4.35;;
16660;SDS011;8444;52.012;5.048;2023-08-31T00:43:23;6.72;;;4.50;;
16660;SDS011;8444;52.012;5.048;2023-08-31T00:45:49;8.20;;;5.05;;
16660;SDS011;8444;52.012;5.048;2023-08-31T00:48:15;7.63;;;4.93;;
16660;SDS011;8444;52.012;5.048;2023-08-31T00:50:42;9.38;;;4.88;;
16660;SDS011;8444;52.012;5.048;2023-08-31T00:53:07;8.13;;;5.60;;
16660;SDS011;8444;52.012;5.048;2023-08-31T00:55:33;6.63;;;4.72;;
16660;SDS011;8444;52.012;5.048;2023-08-31T00:57:59;9.15;;;5.43;;
16660;SDS011;8444;52.012;5.048;2023-08-31T01:00:25;7.65;;;5.40;;
16660;SDS011;8444;52.012;5.048;2023-08-31T01:13:07;8.40;;;5.13;;
16660;SDS011;8444;52.012;5.048;2023-08-31T01:15:38;9.40;;;5.15;;
16660;SDS011;8444;52.012;5.048;2023-08-31T01:18:05;10.07;;;5.28;;
16660;SDS011;8444;52.012;5.048;2023-08-31T01:20:38;10.75;;;5.15;;
16660;SDS011;8444;52.012;5.048;2023-08-31T01:23:06;9.48;;;5.00;;
16660;SDS011;8444;52.012;5.048;2023-08-31T01:25:32;10.20;;;5.20;;
16660;SDS011;8444;52.012;5.048;2023-08-31T01:27:58;10.18;;;4.60;;
16660;SDS011;8444;52.012;5.048;2023-08-31T01:30:23;5.90;;;4.53;;
16660;SDS011;8444;52.012;5.048;2023-08-31T01:32:49;9.50;;;4.20;;
16660;SDS011;8444;52.012;5.048;2023-08-31T01:35:14;5.22;;;3.53;;
16660;SDS011;8444;52.012;5.048;2023-08-31T01:37:50;7.20;;;3.78;;
16660;SDS011;8444;52.012;5.048;2023-08-31T01:42:42;9.63;;;3.80;;
16660;SDS011;8444;52.012;5.048;2023-08-31T01:45:08;8.80;;;3.60;;
16660;SDS011;8444;52.012;5.048;2023-08-31T01:47:35;7.72;;;4.10;;
16660;SDS011;8444;52.012;5.048;2023-08-31T01:50:01;7.18;;;3.63;;
16660;SDS011;8444;52.012;5.048;2023-08-31T01:52:26;6.75;;;4.35;;
16660;SDS011;8444;52.012;5.048;2023-08-31T01:54:52;5.47;;;3.33;;
16660;SDS011;8444;52.012;5.048;2023-08-31T01:57:17;6.07;;;3.15;;
16660;SDS011;8444;52.012;5.048;2023-08-31T01:59:42;4.65;;;3.53;;
16660;SDS011;8444;52.012;5.048;2023-08-31T02:02:08;5.90;;;2.63;;
16660;SDS011;8444;52.012;5.048;2023-08-31T02:04:33;4.88;;;2.70;;
16660;SDS011;8444;52.012;5.048;2023-08-31T02:06:58;4.82;;;2.67;;
16660;SDS011;8444;52.012;5.048;2023-08-31T02:09:23;3.47;;;2.40;;
16660;SDS011;8444;52.012;5.048;2023-08-31T02:11:49;5.93;;;2.40;;
16660;SDS011;8444;52.012;5.048;2023-08-31T02:14:14;8.02;;;2.00;;
16660;SDS011;8444;52.012;5.048;2023-08-31T02:16:39;3.50;;;1.67;;
16660;SDS011;8444;52.012;5.048;2023-08-31T02:19:04;4.40;;;1.80;;
16660;SDS011;8444;52.012;5.048;2023-08-31T02:21:29;2.35;;;1.80;;
16660;SDS011;8444;52.012;5.048;2023-08-31T02:23:55;3.92;;;2.25;;
16660;SDS011;8444;52.012;5.048;2023-08-31T02:26:21;2.75;;;2.00;;
16660;SDS011;8444;52.012;5.048;2023-08-31T02:28:46;6.18;;;2.03;;
16660;SDS011;8444;52.012;5.048;2023-08-31T02:31:13;3.13;;;2.33;;
16660;SDS011;8444;52.012;5.048;2023-08-31T02:33:38;4.55;;;2.60;;
16660;SDS011;8444;52.012;5.048;2023-08-31T02:36:03;2.15;;;1.83;;
16660;SDS011;8444;52.012;5.048;2023-08-31T02:38:29;4.00;;;2.08;;
16660;SDS011;8444;52.012;5.048;2023-08-31T02:40:54;4.13;;;1.88;;
16660;SDS011;8444;52.012;5.048;2023-08-31T02:43:19;2.78;;;2.15;;
16660;SDS011;8444;52.012;5.048;2023-08-31T02:45:44;2.22;;;2.00;;
16660;SDS011;8444;52.012;5.048;2023-08-31T02:48:10;1.77;;;1.50;;
16660;SDS011;8444;52.012;5.048;2023-08-31T02:50:35;3.28;;;1.55;;
16660;SDS011;8444;52.012;5.048;2023-08-31T02:53:00;2.75;;;2.15;;
16660;SDS011;8444;52.012;5.048;2023-08-31T02:55:26;3.03;;;1.85;;
16660;SDS011;8444;52.012;5.048;2023-08-31T02:57:51;3.25;;;1.98;;
16660;SDS011;8444;52.012;5.048;2023-08-31T03:00:16;2.60;;;2.30;;
16660;SDS011;8444;52.012;5.048;2023-08-31T03:02:41;5.05;;;1.85;;
16660;SDS011;8444;52.012;5.048;2023-08-31T03:05:08;4.95;;;1.80;;
16660;SDS011;8444;52.012;5.048;2023-08-31T03:07:34;4.50;;;1.85;;
16660;SDS011;8444;52.012;5.048;2023-08-31T03:09:59;6.60;;;2.30;;
16660;SDS011;8444;52.012;5.048;2023-08-31T03:12:24;4.90;;;2.30;;
16660;SDS011;8444;52.012;5.048;2023-08-31T03:14:50;5.22;;;2.42;;
16660;SDS011;8444;52.012;5.048;2023-08-31T03:17:15;3.95;;;3.10;;
16660;SDS011;8444;52.012;5.048;2023-08-31T03:19:40;6.32;;;4.28;;
16660;SDS011;8444;52.012;5.048;2023-08-31T03:22:06;6.88;;;4.18;;
16660;SDS011;8444;52.012;5.048;2023-08-31T03:24:32;10.65;;;4.95;;
16660;SDS011;8444;52.012;5.048;2023-08-31T03:26:57;7.25;;;5.70;;
16660;SDS011;8444;52.012;5.048;2023-08-31T03:29:22;10.15;;;6.68;;
16660;SDS011;8444;52.012;5.048;2023-08-31T03:31:47;15.10;;;8.07;;
16660;SDS011;8444;52.012;5.048;2023-08-31T03:34:13;15.48;;;9.45;;
16660;SDS011;8444;52.012;5.048;2023-08-31T03:36:38;12.23;;;9.25;;
16660;SDS011;8444;52.012;5.048;2023-08-31T03:39:03;16.05;;;9.35;;
16660;SDS011;8444;52.012;5.048;2023-08-31T03:41:29;15.15;;;9.00;;
16660;SDS011;8444;52.012;5.048;2023-08-31T03:43:55;14.05;;;9.60;;
16660;SDS011;8444;52.012;5.048;2023-08-31T03:46:20;17.70;;;11.35;;
16660;SDS011;8444;52.012;5.048;2023-08-31T03:48:46;17.58;;;10.85;;
16660;SDS011;8444;52.012;5.048;2023-08-31T03:51:11;15.23;;;9.88;;
16660;SDS011;8444;52.012;5.048;2023-08-31T03:53:36;17.15;;;10.80;;
16660;SDS011;8444;52.012;5.048;2023-08-31T03:56:01;17.05;;;10.55;;
16660;SDS011;8444;52.012;5.048;2023-08-31T03:58:29;20.73;;;10.73;;
16660;SDS011;8444;52.012;5.048;2023-08-31T04:00:54;15.50;;;10.88;;
16660;SDS011;8444;52.012;5.048;2023-08-31T04:03:19;13.90;;;10.85;;
16660;SDS011;8444;52.012;5.048;2023-08-31T04:05:45;18.52;;;11.43;;
16660;SDS011;8444;52.012;5.048;2023-08-31T04:08:10;18.13;;;11.25;;
16660;SDS011;8444;52.012;5.048;2023-08-31T04:10:35;17.73;;;12.02;;
16660;SDS011;8444;52.012;5.048;2023-08-31T04:13:00;17.30;;;11.23;;
16660;SDS011;8444;52.012;5.048;2023-08-31T04:15:26;15.18;;;11.02;;
16660;SDS011;8444;52.012;5.048;2023-08-31T04:17:51;15.48;;;11.13;;
16660;SDS011;8444;52.012;5.048;2023-08-31T04:20:16;16.58;;;10.68;;
16660;SDS011;8444;52.012;5.048;2023-08-31T04:22:41;16.58;;;10.63;;
16660;SDS011;8444;52.012;5.048;2023-08-31T04:25:07;16.80;;;12.10;;
16660;SDS011;8444;52.012;5.048;2023-08-31T04:27:32;18.13;;;11.55;;
16660;SDS011;8444;52.012;5.048;2023-08-31T04:30:01;22.05;;;12.20;;
16660;SDS011;8444;52.012;5.048;2023-08-31T04:32:26;17.55;;;10.95;;
16660;SDS011;8444;52.012;5.048;2023-08-31T04:34:52;19.88;;;10.82;;
16660;SDS011;8444;52.012;5.048;2023-08-31T04:37:17;17.42;;;10.80;;
16660;SDS011;8444;52.012;5.048;2023-08-31T04:39:42;15.45;;;10.45;;
16660;SDS011;8444;52.012;5.048;2023-08-31T04:42:07;16.88;;;11.98;;
16660;SDS011;8444;52.012;5.048;2023-08-31T04:44:33;16.33;;;10.65;;
16660;SDS011;8444;52.012;5.048;2023-08-31T04:46:58;16.42;;;11.07;;
16660;SDS011;8444;52.012;5.048;2023-08-31T04:49:24;14.85;;;10.82;;
16660;SDS011;8444;52.012;5.048;2023-08-31T04:51:49;17.10;;;8.80;;
16660;SDS011;8444;52.012;5.048;2023-08-31T04:54:14;15.00;;;10.60;;
16660;SDS011;8444;52.012;5.048;2023-08-31T04:56:40;13.77;;;10.00;;
16660;SDS011;8444;52.012;5.048;2023-08-31T04:59:05;13.73;;;9.65;;
16660;SDS011;8444;52.012;5.048;2023-08-31T05:01:30;12.70;;;9.75;;
16660;SDS011;8444;52.012;5.048;2023-08-31T05:03:55;16.33;;;9.75;;
16660;SDS011;8444;52.012;5.048;2023-08-31T05:06:21;12.45;;;9.80;;
16660;SDS011;8444;52.012;5.048;2023-08-31T05:08:49;10.82;;;9.07;;
16660;SDS011;8444;52.012;5.048;2023-08-31T05:11:14;10.52;;;8.00;;
16660;SDS011;8444;52.012;5.048;2023-08-31T05:13:40;11.80;;;8.65;;
16660;SDS011;8444;52.012;5.048;2023-08-31T05:16:07;12.07;;;8.90;;
16660;SDS011;8444;52.012;5.048;2023-08-31T05:18:32;11.73;;;8.20;;
16660;SDS011;8444;52.012;5.048;2023-08-31T05:20:58;10.10;;;8.30;;
16660;SDS011;8444;52.012;5.048;2023-08-31T05:23:23;8.85;;;7.32;;
16660;SDS011;8444;52.012;5.048;2023-08-31T05:25:49;12.52;;;8.13;;
16660;SDS011;8444;52.012;5.048;2023-08-31T05:28:14;8.38;;;6.35;;
16660;SDS011;8444;52.012;5.048;2023-08-31T05:30:49;8.50;;;6.32;;
16660;SDS011;8444;52.012;5.048;2023-08-31T05:33:15;9.70;;;6.47;;
16660;SDS011;8444;52.012;5.048;2023-08-31T05:35:40;14.38;;;7.38;;
16660;SDS011;8444;52.012;5.048;2023-08-31T05:38:05;8.25;;;6.38;;
16660;SDS011;8444;52.012;5.048;2023-08-31T05:40:31;10.50;;;7.18;;
16660;SDS011;8444;52.012;5.048;2023-08-31T05:42:56;11.13;;;6.05;;
16660;SDS011;8444;52.012;5.048;2023-08-31T05:45:21;7.95;;;5.95;;
16660;SDS011;8444;52.012;5.048;2023-08-31T05:47:46;10.88;;;6.97;;
16660;SDS011;8444;52.012;5.048;2023-08-31T05:50:12;6.32;;;5.50;;
16660;SDS011;8444;52.012;5.048;2023-08-31T05:52:37;6.40;;;5.68;;
16660;SDS011;8444;52.012;5.048;2023-08-31T05:55:02;8.35;;;5.57;;
16660;SDS011;8444;52.012;5.048;2023-08-31T05:57:28;7.10;;;5.70;;
16660;SDS011;8444;52.012;5.048;2023-08-31T05:59:54;9.40;;;7.22;;
16660;SDS011;8444;52.012;5.048;2023-08-31T06:02:19;8.38;;;5.85;;
16660;SDS011;8444;52.012;5.048;2023-08-31T06:04:44;15.27;;;6.88;;
16660;SDS011;8444;52.012;5.048;2023-08-31T06:07:09;8.80;;;6.97;;
16660;SDS011;8444;52.012;5.048;2023-08-31T06:09:34;7.38;;;6.18;;
16660;SDS011;8444;52.012;5.048;2023-08-31T06:12:00;8.07;;;5.07;;
16660;SDS011;8444;52.012;5.048;2023-08-31T06:14:25;11.70;;;5.80;;
16660;SDS011;8444;52.012;5.048;2023-08-31T06:19:18;7.00;;;3.70;;
16660;SDS011;8444;52.012;5.048;2023-08-31T06:21:43;5.72;;;3.05;;
16660;SDS011;8444;52.012;5.048;2023-08-31T06:24:09;6.97;;;2.88;;
16660;SDS011;8444;52.012;5.048;2023-08-31T06:26:37;3.72;;;2.38;;
16660;SDS011;8444;52.012;5.048;2023-08-31T06:29:03;4.40;;;2.78;;
16660;SDS011;8444;52.012;5.048;2023-08-31T06:31:28;4.60;;;2.80;;
16660;SDS011;8444;52.012;5.048;2023-08-31T06:33:54;6.80;;;3.03;;
16660;SDS011;8444;52.012;5.048;2023-08-31T06:36:19;6.78;;;3.90;;
16660;SDS011;8444;52.012;5.048;2023-08-31T06:38:44;5.38;;;3.47;;
16660;SDS011;8444;52.012;5.048;2023-08-31T06:41:09;10.00;;;4.10;;
16660;SDS011;8444;52.012;5.048;2023-08-31T06:43:35;13.55;;;4.63;;
16660;SDS011;8444;52.012;5.048;2023-08-31T06:46:00;6.13;;;4.47;;
16660;SDS011;8444;52.012;5.048;2023-08-31T06:48:25;6.90;;;5.30;;
16660;SDS011;8444;52.012;5.048;2023-08-31T06:50:50;9.02;;;6.35;;
16660;SDS011;8444;52.012;5.048;2023-08-31T06:53:15;8.77;;;5.82;;
16660;SDS011;8444;52.012;5.048;2023-08-31T06:55:41;6.30;;;5.30;;
16660;SDS011;8444;52.012;5.048;2023-08-31T06:58:06;6.78;;;5.70;;
16660;SDS011;8444;52.012;5.048;2023-08-31T07:00:31;7.45;;;5.45;;
16660;SDS011;8444;52.012;5.048;2023-08-31T07:02:57;11.55;;;5.60;;
16660;SDS011;8444;52.012;5.048;2023-08-31T07:05:24;10.13;;;6.57;;
16660;SDS011;8444;52.012;5.048;2023-08-31T07:07:51;9.30;;;5.80;;
16660;SDS011;8444;52.012;5.048;2023-08-31T07:10:17;17.13;;;6.68;;
16660;SDS011;8444;52.012;5.048;2023-08-31T07:12:42;9.07;;;6.45;;
16660;SDS011;8444;52.012;5.048;2023-08-31T07:15:07;10.93;;;6.57;;
16660;SDS011;8444;52.012;5.048;2023-08-31T07:17:32;11.32;;;6.13;;
16660;SDS011;8444;52.012;5.048;2023-08-31T07:19:58;7.03;;;5.47;;
16660;SDS011;8444;52.012;5.048;2023-08-31T07:22:23;8.55;;;5.20;;
16660;SDS011;8444;52.012;5.048;2023-08-31T07:24:48;8.27;;;5.35;;
16660;SDS011;8444;52.012;5.048;2023-08-31T07:27:15;11.05;;;6.22;;
16660;SDS011;8444;52.012;5.048;2023-08-31T07:29:40;9.38;;;5.60;;
16660;SDS011;8444;52.012;5.048;2023-08-31T07:32:05;6.43;;;5.07;;
16660;SDS011;8444;52.012;5.048;2023-08-31T07:34:31;7.72;;;4.70;;
16660;SDS011;8444;52.012;5.048;2023-08-31T07:36:56;7.35;;;5.18;;
16660;SDS011;8444;52.012;5.048;2023-08-31T07:39:21;9.13;;;5.00;;
16660;SDS011;8444;52.012;5.048;2023-08-31T07:41:47;7.28;;;4.75;;
16660;SDS011;8444;52.012;5.048;2023-08-31T07:44:12;7.22;;;4.55;;
16660;SDS011;8444;52.012;5.048;2023-08-31T07:46:37;9.95;;;4.93;;
16660;SDS011;8444;52.012;5.048;2023-08-31T07:49:02;7.40;;;5.10;;
16660;SDS011;8444;52.012;5.048;2023-08-31T07:51:28;8.50;;;4.32;;
16660;SDS011;8444;52.012;5.048;2023-08-31T07:53:54;9.40;;;4.47;;
16660;SDS011;8444;52.012;5.048;2023-08-31T07:56:19;7.45;;;4.80;;
16660;SDS011;8444;52.012;5.048;2023-08-31T07:58:44;8.70;;;3.95;;
16660;SDS011;8444;52.012;5.048;2023-08-31T08:01:09;4.45;;;3.35;;
16660;SDS011;8444;52.012;5.048;2023-08-31T08:03:35;8.10;;;4.10;;
16660;SDS011;8444;52.012;5.048;2023-08-31T08:06:00;5.72;;;3.30;;
16660;SDS011;8444;52.012;5.048;2023-08-31T08:08:25;3.20;;;2.90;;
16660;SDS011;8444;52.012;5.048;2023-08-31T08:10:54;5.60;;;2.90;;
16660;SDS011;8444;52.012;5.048;2023-08-31T08:13:19;6.10;;;2.95;;
16660;SDS011;8444;52.012;5.048;2023-08-31T08:15:45;4.30;;;2.80;;
16660;SDS011;8444;52.012;5.048;2023-08-31T08:18:10;3.80;;;2.30;;
16660;SDS011;8444;52.012;5.048;2023-08-31T08:20:35;6.28;;;2.75;;
16660;SDS011;8444;52.012;5.048;2023-08-31T08:23:01;6.18;;;3.13;;
16660;SDS011;8444;52.012;5.048;2023-08-31T08:25:26;6.78;;;2.25;;
16660;SDS011;8444;52.012;5.048;2023-08-31T08:27:51;4.95;;;1.83;;
16660;SDS011;8444;52.012;5.048;2023-08-31T08:30:16;3.80;;;1.65;;
16660;SDS011;8444;52.012;5.048;2023-08-31T08:32:43;4.13;;;2.00;;
16660;SDS011;8444;52.012;5.048;2023-08-31T08:35:08;2.28;;;1.52;;
16660;SDS011;8444;52.012;5.048;2023-08-31T08:37:33;3.58;;;1.52;;
16660;SDS011;8444;52.012;5.048;2023-08-31T08:39:59;2.47;;;1.42;;
16660;SDS011;8444;52.012;5.048;2023-08-31T08:42:24;2.22;;;1.17;;
16660;SDS011;8444;52.012;5.048;2023-08-31T08:44:50;1.83;;;1.25;;
16660;SDS011;8444;52.012;5.048;2023-08-31T08:47:15;3.05;;;1.02;;
16660;SDS011;8444;52.012;5.048;2023-08-31T08:49:41;1.98;;;0.93;;
16660;SDS011;8444;52.012;5.048;2023-08-31T08:52:06;2.13;;;1.00;;
16660;SDS011;8444;52.012;5.048;2023-08-31T08:54:32;2.50;;;1.02;;
16660;SDS011;8444;52.012;5.048;2023-08-31T08:56:57;3.20;;;0.90;;
16660;SDS011;8444;52.012;5.048;2023-08-31T08:59:23;3.45;;;0.98;;
16660;SDS011;8444;52.012;5.048;2023-08-31T09:01:48;2.25;;;0.57;;
16660;SDS011;8444;52.012;5.048;2023-08-31T09:04:13;2.45;;;0.90;;
16660;SDS011;8444;52.012;5.048;2023-08-31T09:06:39;1.75;;;0.70;;
16660;SDS011;8444;52.012;5.048;2023-08-31T09:09:04;2.72;;;1.20;;
16660;SDS011;8444;52.012;5.048;2023-08-31T09:11:30;0.95;;;0.75;;
16660;SDS011;8444;52.012;5.048;2023-08-31T09:13:56;2.70;;;1.13;;
16660;SDS011;8444;52.012;5.048;2023-08-31T09:18:51;1.02;;;0.63;;
16660;SDS011;8444;52.012;5.048;2023-08-31T09:21:17;2.88;;;1.02;;
16660;SDS011;8444;52.012;5.048;2023-08-31T09:23:42;1.65;;;0.30;;
16660;SDS011;8444;52.012;5.048;2023-08-31T09:26:11;0.43;;;0.38;;
16660;SDS011;8444;52.012;5.048;2023-08-31T09:28:40;3.17;;;0.40;;
16660;SDS011;8444;52.012;5.048;2023-08-31T09:31:05;1.20;;;0.32;;
16660;SDS011;8444;52.012;5.048;2023-08-31T09:33:31;1.90;;;0.40;;
16660;SDS011;8444;52.012;5.048;2023-08-31T09:35:57;3.70;;;0.50;;
16660;SDS011;8444;52.012;5.048;2023-08-31T09:38:22;0.98;;;0.60;;
16660;SDS011;8444;52.012;5.048;2023-08-31T09:40:48;2.05;;;0.50;;
16660;SDS011;8444;52.012;5.048;2023-08-31T09:43:22;3.67;;;0.50;;
16660;SDS011;8444;52.012;5.048;2023-08-31T09:45:48;1.98;;;0.80;;
16660;SDS011;8444;52.012;5.048;2023-08-31T09:48:14;2.65;;;0.60;;
16660;SDS011;8444;52.012;5.048;2023-08-31T09:50:40;1.10;;;0.60;;
16660;SDS011;8444;52.012;5.048;2023-08-31T09:53:08;3.30;;;0.52;;
16660;SDS011;8444;52.012;5.048;2023-08-31T09:55:34;3.75;;;0.77;;
16660;SDS011;8444;52.012;5.048;2023-08-31T09:58:01;2.28;;;0.52;;
16660;SDS011;8444;52.012;5.048;2023-08-31T10:00:27;4.57;;;0.65;;
16660;SDS011;8444;52.012;5.048;2023-08-31T10:02:53;2.25;;;0.50;;
16660;SDS011;8444;52.012;5.048;2023-08-31T10:05:19;1.95;;;0.60;;
16660;SDS011;8444;52.012;5.048;2023-08-31T10:07:45;2.13;;;0.85;;
16660;SDS011;8444;52.012;5.048;2023-08-31T10:10:10;3.72;;;0.60;;
16660;SDS011;8444;52.012;5.048;2023-08-31T10:12:36;1.75;;;0.43;;
16660;SDS011;8444;52.012;5.048;2023-08-31T10:15:02;3.00;;;0.57;;
16660;SDS011;8444;52.012;5.048;2023-08-31T10:17:28;4.60;;;0.50;;
16660;SDS011;8444;52.012;5.048;2023-08-31T10:19:53;3.17;;;0.77;;
16660;SDS011;8444;52.012;5.048;2023-08-31T10:22:19;1.25;;;0.55;;
16660;SDS011;8444;52.012;5.048;2023-08-31T10:27:22;2.35;;;0.57;;
16660;SDS011;8444;52.012;5.048;2023-08-31T10:29:48;1.27;;;0.52;;
16660;SDS011;8444;52.012;5.048;2023-08-31T10:32:19;0.80;;;0.40;;
16660;SDS011;8444;52.012;5.048;2023-08-31T10:35:03;2.08;;;0.65;;
16660;SDS011;8444;52.012;5.048;2023-08-31T10:37:29;2.70;;;0.35;;
16660;SDS011;8444;52.012;5.048;2023-08-31T10:40:06;0.65;;;0.45;;
16660;SDS011;8444;52.012;5.048;2023-08-31T10:42:31;1.17;;;0.70;;
16660;SDS011;8444;52.012;5.048;2023-08-31T10:45:05;1.33;;;0.60;;
16660;SDS011;8444;52.012;5.048;2023-08-31T10:47:36;3.97;;;0.65;;
16660;SDS011;8444;52.012;5.048;2023-08-31T10:50:15;1.95;;;0.50;;
16660;SDS011;8444;52.012;5.048;2023-08-31T10:52:42;4.13;;;0.68;;
16660;SDS011;8444;52.012;5.048;2023-08-31T10:55:09;5.03;;;0.75;;
16660;SDS011;8444;52.012;5.048;2023-08-31T10:57:35;3.55;;;0.60;;
16660;SDS011;8444;52.012;5.048;2023-08-31T11:00:00;1.90;;;0.40;;
16660;SDS011;8444;52.012;5.048;2023-08-31T11:02:29;1.50;;;0.40;;
16660;SDS011;8444;52.012;5.048;2023-08-31T11:04:55;1.67;;;0.60;;
16660;SDS011;8444;52.012;5.048;2023-08-31T11:07:24;1.45;;;0.70;;
16660;SDS011;8444;52.012;5.048;2023-08-31T11:09:50;1.52;;;0.60;;
16660;SDS011;8444;52.012;5.048;2023-08-31T11:12:15;2.72;;;0.70;;
16660;SDS011;8444;52.012;5.048;2023-08-31T11:14:41;2.25;;;0.77;;
16660;SDS011;8444;52.012;5.048;2023-08-31T11:17:06;1.33;;;0.55;;
16660;SDS011;8444;52.012;5.048;2023-08-31T11:19:32;1.55;;;0.43;;
16660;SDS011;8444;52.012;5.048;2023-08-31T11:21:58;2.53;;;1.33;;
16660;SDS011;8444;52.012;5.048;2023-08-31T11:24:24;1.23;;;0.70;;
16660;SDS011;8444;52.012;5.048;2023-08-31T11:26:53;1.48;;;0.60;;
16660;SDS011;8444;52.012;5.048;2023-08-31T11:29:18;1.52;;;0.50;;
16660;SDS011;8444;52.012;5.048;2023-08-31T11:31:43;6.65;;;0.68;;
16660;SDS011;8444;52.012;5.048;2023-08-31T11:34:12;1.10;;;0.50;;
16660;SDS011;8444;52.012;5.048;2023-08-31T11:36:37;2.38;;;0.50;;
16660;SDS011;8444;52.012;5.048;2023-08-31T11:39:02;4.35;;;0.77;;
16660;SDS011;8444;52.012;5.048;2023-08-31T11:41:35;1.73;;;0.45;;
16660;SDS011;8444;52.012;5.048;2023-08-31T11:44:03;1.35;;;0.70;;
16660;SDS011;8444;52.012;5.048;2023-08-31T11:46:29;1.65;;;0.60;;
16660;SDS011;8444;52.012;5.048;2023-08-31T11:48:54;4.07;;;0.50;;
16660;SDS011;8444;52.012;5.048;2023-08-31T11:51:19;2.33;;;0.60;;
16660;SDS011;8444;52.012;5.048;2023-08-31T11:53:45;3.22;;;0.90;;
16660;SDS011;8444;52.012;5.048;2023-08-31T11:56:10;1.40;;;0.65;;
16660;SDS011;8444;52.012;5.048;2023-08-31T11:58:42;3.67;;;0.75;;
16660;SDS011;8444;52.012;5.048;2023-08-31T12:01:07;1.23;;;0.50;;
16660;SDS011;8444;52.012;5.048;2023-08-31T12:03:41;0.85;;;0.50;;
16660;SDS011;8444;52.012;5.048;2023-08-31T12:06:07;4.63;;;0.70;;
16660;SDS011;8444;52.012;5.048;2023-08-31T12:08:32;1.88;;;0.90;;
16660;SDS011;8444;52.012;5.048;2023-08-31T12:10:59;1.10;;;0.73;;
16660;SDS011;8444;52.012;5.048;2023-08-31T12:13:25;3.83;;;0.73;;
16660;SDS011;8444;52.012;5.048;2023-08-31T12:15:52;6.97;;;0.93;;
16660;SDS011;8444;52.012;5.048;2023-08-31T12:18:17;1.33;;;0.60;;
16660;SDS011;8444;52.012;5.048;2023-08-31T12:20:46;0.60;;;0.35;;
16660;SDS011;8444;52.012;5.048;2023-08-31T12:23:12;2.80;;;0.60;;
16660;SDS011;8444;52.012;5.048;2023-08-31T12:25:44;0.55;;;0.43;;
16660;SDS011;8444;52.012;5.048;2023-08-31T12:28:09;2.03;;;0.77;;
16660;SDS011;8444;52.012;5.048;2023-08-31T12:30:35;1.77;;;0.50;;
16660;SDS011;8444;52.012;5.048;2023-08-31T12:33:00;3.33;;;0.55;;
16660;SDS011;8444;52.012;5.048;2023-08-31T12:35:25;1.00;;;0.50;;
16660;SDS011;8444;52.012;5.048;2023-08-31T12:37:50;1.63;;;0.60;;
16660;SDS011;8444;52.012;5.048;2023-08-31T12:40:16;1.40;;;0.68;;
16660;SDS011;8444;52.012;5.048;2023-08-31T12:42:44;2.60;;;0.60;;
16660;SDS011;8444;52.012;5.048;2023-08-31T12:45:09;1.10;;;0.40;;
16660;SDS011;8444;52.012;5.048;2023-08-31T12:47:34;2.55;;;0.47;;
16660;SDS011;8444;52.012;5.048;2023-08-31T12:50:00;1.55;;;0.40;;
16660;SDS011;8444;52.012;5.048;2023-08-31T12:52:27;1.27;;;0.40;;
16660;SDS011;8444;52.012;5.048;2023-08-31T12:54:52;2.08;;;0.60;;
16660;SDS011;8444;52.012;5.048;2023-08-31T12:57:17;1.83;;;0.70;;
16660;SDS011;8444;52.012;5.048;2023-08-31T12:59:43;0.98;;;0.65;;
16660;SDS011;8444;52.012;5.048;2023-08-31T13:02:08;1.75;;;0.60;;
16660;SDS011;8444;52.012;5.048;2023-08-31T13:04:35;1.73;;;0.60;;
16660;SDS011;8444;52.012;5.048;2023-08-31T13:07:01;4.88;;;0.60;;
16660;SDS011;8444;52.012;5.048;2023-08-31T13:09:26;1.48;;;0.60;;
16660;SDS011;8444;52.012;5.048;2023-08-31T13:11:53;2.42;;;0.80;;
16660;SDS011;8444;52.012;5.048;2023-08-31T13:14:18;4.40;;;1.02;;
16660;SDS011;8444;52.012;5.048;2023-08-31T13:16:43;2.85;;;0.70;;
16660;SDS011;8444;52.012;5.048;2023-08-31T13:19:09;2.47;;;0.77;;
16660;SDS011;8444;52.012;5.048;2023-08-31T13:21:34;1.35;;;0.60;;
16660;SDS011;8444;52.012;5.048;2023-08-31T13:23:59;3.22;;;0.70;;
16660;SDS011;8444;52.012;5.048;2023-08-31T13:26:25;2.33;;;0.70;;
16660;SDS011;8444;52.012;5.048;2023-08-31T13:28:51;1.95;;;0.90;;
16660;SDS011;8444;52.012;5.048;2023-08-31T13:31:16;5.82;;;0.82;;
16660;SDS011;8444;52.012;5.048;2023-08-31T13:33:41;3.15;;;0.73;;
16660;SDS011;8444;52.012;5.048;2023-08-31T13:36:07;2.83;;;0.82;;
16660;SDS011;8444;52.012;5.048;2023-08-31T13:38:34;6.72;;;0.85;;
16660;SDS011;8444;52.012;5.048;2023-08-31T13:40:59;3.53;;;0.90;;
16660;SDS011;8444;52.012;5.048;2023-08-31T13:43:24;1.05;;;0.47;;
16660;SDS011;8444;52.012;5.048;2023-08-31T13:45:50;3.03;;;0.75;;
16660;SDS011;8444;52.012;5.048;2023-08-31T13:48:16;2.63;;;0.80;;
16660;SDS011;8444;52.012;5.048;2023-08-31T13:50:41;2.03;;;0.63;;
16660;SDS011;8444;52.012;5.048;2023-08-31T13:53:06;3.63;;;1.20;;
16660;SDS011;8444;52.012;5.048;2023-08-31T13:55:31;3.42;;;0.77;;
16660;SDS011;8444;52.012;5.048;2023-08-31T13:58:03;2.25;;;0.82;;
16660;SDS011;8444;52.012;5.048;2023-08-31T14:00:28;1.90;;;0.60;;
16660;SDS011;8444;52.012;5.048;2023-08-31T14:02:53;0.95;;;0.45;;
16660;SDS011;8444;52.012;5.048;2023-08-31T14:05:19;2.88;;;0.65;;
16660;SDS011;8444;52.012;5.048;2023-08-31T14:07:44;2.08;;;0.80;;
16660;SDS011;8444;52.012;5.048;2023-08-31T14:10:10;1.92;;;0.60;;
16660;SDS011;8444;52.012;5.048;2023-08-31T14:12:35;1.40;;;0.60;;
16660;SDS011;8444;52.012;5.048;2023-08-31T14:15:00;1.92;;;0.77;;
16660;SDS011;8444;52.012;5.048;2023-08-31T14:17:29;4.50;;;1.20;;
16660;SDS011;8444;52.012;5.048;2023-08-31T14:19:54;4.18;;;0.93;;
16660;SDS011;8444;52.012;5.048;2023-08-31T14:22:19;1.77;;;0.70;;
16660;SDS011;8444;52.012;5.048;2023-08-31T14:24:45;3.22;;;1.00;;
16660;SDS011;8444;52.012;5.048;2023-08-31T14:27:10;3.17;;;0.75;;
16660;SDS011;8444;52.012;5.048;2023-08-31T14:29:36;3.33;;;0.93;;
16660;SDS011;8444;52.012;5.048;2023-08-31T14:32:01;2.88;;;0.90;;
16660;SDS011;8444;52.012;5.048;2023-08-31T14:34:27;4.05;;;0.93;;
16660;SDS011;8444;52.012;5.048;2023-08-31T14:36:52;3.05;;;0.95;;
16660;SDS011;8444;52.012;5.048;2023-08-31T14:39:22;3.25;;;1.00;;
16660;SDS011;8444;52.012;5.048;2023-08-31T14:41:48;2.25;;;0.75;;
16660;SDS011;8444;52.012;5.048;2023-08-31T14:44:13;3.47;;;0.73;;
16660;SDS011;8444;52.012;5.048;2023-08-31T14:46:39;2.72;;;0.73;;
16660;SDS011;8444;52.012;5.048;2023-08-31T14:49:05;1.77;;;0.90;;
16660;SDS011;8444;52.012;5.048;2023-08-31T14:51:31;3.35;;;1.05;;
16660;SDS011;8444;52.012;5.048;2023-08-31T14:53:57;1.13;;;0.75;;
16660;SDS011;8444;52.012;5.048;2023-08-31T14:56:22;2.08;;;0.70;;
16660;SDS011;8444;52.012;5.048;2023-08-31T14:58:47;2.88;;;0.80;;
16660;SDS011;8444;52.012;5.048;2023-08-31T15:01:12;3.53;;;1.15;;
16660;SDS011;8444;52.012;5.048;2023-08-31T15:03:37;0.93;;;0.60;;
16660;SDS011;8444;52.012;5.048;2023-08-31T15:06:03;2.97;;;1.05;;
16660;SDS011;8444;52.012;5.048;2023-08-31T15:08:38;4.10;;;0.77;;
16660;SDS011;8444;52.012;5.048;2023-08-31T15:11:03;2.53;;;0.73;;